Time;durP1;ratioP1;P1;durP2;ratioP2;P2;SDS_P1;SDS_P2;PMS_P1;PMS_P2;Temp;Humidity;BMP_temperature;BMP_pressure;BME280_temperature;BME280_humidity;BME280_pressure;Samples;Min_cycle;Max_cycle;Signal;HPM_P1;HPM_P2
2021/05/23 00:01:44;;;;;;;2.60;1.55;;;12.40;76.70;;;;;;5113470;28;20288;-88
2021/05/23 00:04:10;;;;;;;2.00;1.20;;;12.30;76.70;;;;;;5108668;28;20284;-88
2021/05/23 00:06:37;;;;;;;2.67;1.25;;;12.30;75.60;;;;;;5108065;28;20314;-89
2021/05/23 00:09:05;;;;;;;1.77;1.38;;;12.20;76.80;;;;;;5108382;28;20217;-88
2021/05/23 00:11:32;;;;;;;2.28;1.20;;;12.20;77.40;;;;;;5107747;28;20259;-88
2021/05/23 00:13:59;;;;;;;5.03;3.53;;;12.20;77.50;;;;;;5073451;28;20639;-89
2021/05/23 00:16:26;;;;;;;2.58;1.40;;;12.40;77.40;;;;;;5080043;28;20231;-88
2021/05/23 00:18:54;;;;;;;7.10;4.00;;;12.50;75.50;;;;;;5107207;28;20201;-88
2021/05/23 00:21:26;;;;;;;8.27;5.78;;;12.50;75.50;;;;;;5093214;28;20231;-89
2021/05/23 00:23:52;;;;;;;7.82;5.32;;;12.70;75.60;;;;;;5108077;28;20204;-88
2021/05/23 00:26:19;;;;;;;9.07;6.45;;;12.80;75.70;;;;;;5112162;27;20227;-88
2021/05/23 00:28:49;;;;;;;6.25;4.70;;;12.80;75.70;;;;;;5121732;28;20220;-88
2021/05/23 00:31:15;;;;;;;6.32;4.75;;;12.90;75.80;;;;;;5111778;28;20227;-88
2021/05/23 00:33:41;;;;;;;4.50;2.38;;;12.90;75.80;;;;;;5105259;28;20229;-88
2021/05/23 00:36:08;;;;;;;6.60;4.93;;;12.80;75.80;;;;;;5108496;27;20311;-88
2021/05/23 00:38:34;;;;;;;4.28;3.00;;;12.70;75.60;;;;;;5112932;28;20234;-90
2021/05/23 00:41:01;;;;;;;7.07;4.55;;;12.70;75.70;;;;;;5123011;28;20210;-88
2021/05/23 00:43:28;;;;;;;3.10;2.28;;;12.70;75.80;;;;;;5108711;28;20268;-89
2021/05/23 00:45:55;;;;;;;4.38;2.83;;;12.70;75.60;;;;;;5116426;28;20228;-88
2021/05/23 00:48:23;;;;;;;2.33;1.35;;;12.50;78.10;;;;;;5113044;28;20220;-89
2021/05/23 00:50:49;;;;;;;3.70;1.77;;;12.20;80.20;;;;;;5110427;28;20192;-88
2021/05/23 00:53:17;;;;;;;3.25;2.22;;;12.10;83.70;;;;;;5121003;28;20212;-88
2021/05/23 00:55:44;;;;;;;1.85;1.27;;;12.10;85.60;;;;;;5122508;28;20211;-88
2021/05/23 00:58:11;;;;;;;2.08;1.33;;;11.90;85.90;;;;;;5140122;27;20291;-88
2021/05/23 01:01:18;;;;;;;2.63;2.00;;;11.70;87.90;;;;;;5135753;28;20192;-88
2021/05/23 01:03:54;;;;;;;3.45;2.20;;;11.60;90.00;;;;;;5098048;28;20207;-88
2021/05/23 01:06:45;;;;;;;2.20;1.40;;;11.60;90.10;;;;;;5043593;28;20209;-88
2021/05/23 01:47:25;;;;;;;1.83;1.33;;;11.30;94.70;;;;;;5033709;28;20247;-87
2021/05/23 02:00:59;;;;;;;20.23;15.38;;;11.00;94.70;;;;;;5206546;22;20227;-88
2021/05/23 02:03:26;;;;;;;16.92;12.90;;;11.00;94.80;;;;;;5111223;28;20200;-88
2021/05/23 02:16:12;;;;;;;2.95;1.75;;;11.10;94.80;;;;;;5112264;28;20180;-87
2021/05/23 02:18:39;;;;;;;6.35;4.72;;;11.10;94.40;;;;;;5113201;28;20643;-88
2021/05/23 02:24:33;;;;;;;1.58;1.27;;;11.10;94.70;;;;;;5112831;28;20172;-87
2021/05/23 02:27:00;;;;;;;2.22;1.52;;;11.00;94.80;;;;;;5112448;28;20201;-88
2021/05/23 02:29:28;;;;;;;3.15;1.30;;;11.00;95.10;;;;;;5112483;28;20278;-88
2021/05/23 02:35:53;;;;;;;4.28;2.75;;;10.90;95.90;;;;;;5112475;28;20183;-88
2021/05/23 02:45:17;;;;;;;2.55;1.40;;;11.30;94.40;;;;;;5110012;28;20192;-87
2021/05/23 02:47:45;;;;;;;1.98;1.25;;;11.30;94.20;;;;;;5112274;28;20226;-88
2021/05/23 02:50:14;;;;;;;2.65;1.40;;;11.10;94.60;;;;;;5111278;28;20679;-88
2021/05/23 03:23:51;;;;;;;3.13;1.50;;;10.50;91.30;;;;;;5107701;28;20216;-86
2021/05/23 03:26:18;;;;;;;2.78;1.33;;;10.40;92.40;;;;;;5114429;28;20228;-86
2021/05/23 03:28:44;;;;;;;3.75;1.77;;;10.40;92.20;;;;;;5109189;28;20239;-87
2021/05/23 03:31:10;;;;;;;2.63;1.50;;;10.30;92.90;;;;;;5107010;28;20200;-88
2021/05/23 03:33:37;;;;;;;4.22;1.60;;;10.40;92.60;;;;;;5108351;28;20200;-87
2021/05/23 03:36:04;;;;;;;3.08;1.77;;;10.30;93.10;;;;;;5107101;28;20207;-88
2021/05/23 03:38:30;;;;;;;1.85;1.23;;;10.30;93.40;;;;;;5108399;28;20204;-88
2021/05/23 03:40:57;;;;;;;2.50;1.60;;;10.30;93.00;;;;;;5108201;28;20199;-88
2021/05/23 03:43:24;;;;;;;3.42;1.30;;;10.20;93.10;;;;;;5115981;28;20207;-88
2021/05/23 03:45:50;;;;;;;2.95;1.67;;;10.10;93.30;;;;;;5108587;28;20248;-88
2021/05/23 03:48:16;;;;;;;3.30;1.58;;;10.00;94.20;;;;;;5107616;28;20254;-88
2021/05/23 03:50:43;;;;;;;1.88;1.42;;;10.00;94.50;;;;;;5107686;28;20206;-88
2021/05/23 03:53:09;;;;;;;2.65;1.58;;;10.00;94.90;;;;;;5107193;28;20223;-88
2021/05/23 03:55:36;;;;;;;3.15;1.20;;;9.90;95.30;;;;;;5112647;28;20196;-88
2021/05/23 03:58:05;;;;;;;2.95;1.30;;;9.70;95.50;;;;;;5122392;28;20292;-88
2021/05/23 04:00:33;;;;;;;2.13;1.25;;;9.60;95.80;;;;;;5122500;28;20204;-88
2021/05/23 04:02:59;;;;;;;2.45;1.27;;;9.50;96.00;;;;;;5114546;28;20232;-89
2021/05/23 04:05:28;;;;;;;1.45;0.95;;;9.50;96.80;;;;;;5108645;28;20284;-88
2021/05/23 04:07:55;;;;;;;1.85;1.02;;;9.60;96.80;;;;;;5113328;28;20235;-87
2021/05/23 04:10:24;;;;;;;3.17;1.17;;;9.60;97.00;;;;;;5126871;28;20195;-87
2021/05/23 04:12:52;;;;;;;2.25;0.90;;;9.80;96.60;;;;;;5119794;28;20219;-88
2021/05/23 04:15:20;;;;;;;1.67;0.95;;;9.90;96.10;;;;;;5107671;28;20264;-88
2021/05/23 04:17:47;;;;;;;0.63;0.63;;;9.90;96.10;;;;;;5116154;28;20216;-88
2021/05/23 04:20:17;;;;;;;1.08;0.85;;;9.90;96.10;;;;;;5122209;28;20212;-87
2021/05/23 04:22:44;;;;;;;3.33;0.70;;;9.80;96.10;;;;;;5100976;28;20219;-88
2021/05/23 04:25:13;;;;;;;1.75;0.90;;;9.90;95.60;;;;;;5128584;28;20195;-90
2021/05/23 04:27:40;;;;;;;0.93;0.70;;;9.80;95.90;;;;;;5092521;28;20232;-88
2021/05/23 04:30:09;;;;;;;3.00;0.90;;;9.80;95.50;;;;;;5117233;28;20197;-89
2021/05/23 04:32:38;;;;;;;1.15;0.85;;;9.70;96.00;;;;;;5118771;28;20224;-88
2021/05/23 04:35:06;;;;;;;1.27;0.80;;;9.80;96.10;;;;;;5115183;28;20207;-87
2021/05/23 04:37:33;;;;;;;0.80;0.80;;;9.80;95.60;;;;;;5095661;28;20216;-88
2021/05/23 04:39:59;;;;;;;1.05;0.80;;;9.70;95.50;;;;;;5104038;28;20232;-90
2021/05/23 04:42:26;;;;;;;1.48;0.80;;;9.80;95.40;;;;;;5115198;28;20240;-87
2021/05/23 04:44:52;;;;;;;0.77;0.60;;;9.80;95.60;;;;;;5124807;28;20223;-88
2021/05/23 04:47:19;;;;;;;0.77;0.75;;;9.60;95.60;;;;;;5107620;28;20228;-87
2021/05/23 04:49:46;;;;;;;5.60;1.17;;;9.60;96.00;;;;;;5111783;28;20813;-88
2021/05/23 04:52:14;;;;;;;1.10;1.00;;;9.50;96.30;;;;;;5118631;28;20220;-88
2021/05/23 04:54:41;;;;;;;1.58;0.80;;;9.40;96.60;;;;;;5128083;28;20211;-88
2021/05/23 04:57:09;;;;;;;1.73;0.90;;;9.50;96.00;;;;;;5127495;28;20230;-88
2021/05/23 04:59:36;;;;;;;2.45;0.80;;;9.50;96.00;;;;;;5119548;28;20201;-89
2021/05/23 05:02:03;;;;;;;2.67;0.70;;;9.40;96.00;;;;;;5115894;28;20593;-90
2021/05/23 05:04:30;;;;;;;0.88;0.55;;;9.40;96.00;;;;;;5120188;28;20200;-89
2021/05/23 05:06:57;;;;;;;1.25;0.70;;;9.50;96.00;;;;;;5117849;28;20230;-88
2021/05/23 05:09:24;;;;;;;1.65;0.90;;;9.60;96.00;;;;;;5118277;28;20219;-92
2021/05/23 05:11:51;;;;;;;0.60;0.60;;;9.60;96.00;;;;;;5090001;28;20251;-90
2021/05/23 05:14:18;;;;;;;1.52;0.80;;;9.60;96.00;;;;;;5115932;28;20235;-89
2021/05/23 05:16:44;;;;;;;0.80;0.80;;;9.70;94.80;;;;;;5105234;28;20216;-88
2021/05/23 05:19:11;;;;;;;0.88;0.70;;;9.80;95.40;;;;;;5113344;28;20205;-89
2021/05/23 05:21:37;;;;;;;0.70;0.70;;;9.80;95.20;;;;;;5118939;28;20231;-89
2021/05/23 05:24:06;;;;;;;1.30;0.60;;;9.90;94.90;;;;;;5115038;28;20276;-90
2021/05/23 05:26:32;;;;;;;1.17;0.80;;;9.80;94.70;;;;;;5115590;28;20224;-89
2021/05/23 05:28:58;;;;;;;1.40;0.88;;;9.90;94.30;;;;;;5116647;28;20216;-89
2021/05/23 05:31:25;;;;;;;0.75;0.75;;;9.90;94.40;;;;;;5111325;28;20258;-90
2021/05/23 05:33:52;;;;;;;0.70;0.70;;;10.00;94.50;;;;;;5100518;28;20200;-90
2021/05/23 05:36:18;;;;;;;0.68;0.68;;;10.00;94.10;;;;;;5117530;28;20227;-89
2021/05/23 05:38:45;;;;;;;1.38;0.73;;;9.90;93.40;;;;;;5123368;28;20192;-89
2021/05/23 05:41:12;;;;;;;0.88;0.88;;;9.70;93.40;;;;;;5115068;28;20643;-90
2021/05/23 05:43:38;;;;;;;0.93;0.80;;;9.80;93.50;;;;;;5092907;28;20653;-89
2021/05/23 05:46:05;;;;;;;0.95;0.80;;;9.60;93.40;;;;;;5122225;28;20196;-89
2021/05/23 05:48:31;;;;;;;0.47;0.47;;;9.70;93.70;;;;;;5111563;28;20237;-90
2021/05/23 05:50:58;;;;;;;0.85;0.75;;;9.60;94.40;;;;;;5125418;28;20212;-91
2021/05/23 05:53:34;;;;;;;0.52;0.52;;;9.60;93.50;;;;;;5111187;28;20220;-90
2021/05/23 05:56:01;;;;;;;1.10;0.73;;;9.70;93.40;;;;;;5128767;27;20254;-89
2021/05/23 05:58:28;;;;;;;1.88;0.70;;;9.70;93.40;;;;;;5123734;27;20200;-89
2021/05/23 06:00:55;;;;;;;1.55;0.57;;;9.60;93.30;;;;;;5119462;27;20192;-92
2021/05/23 06:03:21;;;;;;;0.50;0.50;;;9.60;93.40;;;;;;5122081;27;20283;-89
2021/05/23 06:05:48;;;;;;;0.60;0.60;;;9.60;94.00;;;;;;5117227;28;20211;-89
2021/05/23 06:08:14;;;;;;;0.60;0.60;;;9.60;93.30;;;;;;5126824;28;20741;-88
2021/05/23 06:10:41;;;;;;;0.73;0.60;;;9.60;94.20;;;;;;5118977;27;20203;-89
2021/05/23 06:13:07;;;;;;;0.52;0.52;;;9.60;94.20;;;;;;5116295;27;20233;-88
2021/05/23 06:15:36;;;;;;;0.55;0.50;;;9.70;93.70;;;;;;5126157;28;20192;-88
2021/05/23 06:18:10;;;;;;;0.52;0.52;;;9.70;93.80;;;;;;5122862;28;20208;-90
2021/05/23 06:20:36;;;;;;;0.50;0.50;;;9.60;94.20;;;;;;5118814;28;20200;-89
2021/05/23 06:23:03;;;;;;;1.00;0.60;;;9.60;94.40;;;;;;5124083;28;20220;-86
2021/05/23 06:25:29;;;;;;;0.43;0.38;;;9.80;94.20;;;;;;5125622;28;20196;-90
2021/05/23 06:27:55;;;;;;;0.90;0.50;;;9.90;93.40;;;;;;5088422;28;20224;-89
2021/05/23 06:30:22;;;;;;;1.65;0.43;;;9.80;93.30;;;;;;5114358;28;20222;-90
2021/05/23 06:32:50;;;;;;;0.30;0.30;;;9.70;93.20;;;;;;5117385;28;20230;-89
2021/05/23 06:35:25;;;;;;;0.70;0.70;;;9.60;93.30;;;;;;5102585;28;20195;-89
2021/05/23 06:37:54;;;;;;;0.85;0.60;;;9.40;93.40;;;;;;5108511;28;20276;-89
2021/05/23 06:40:24;;;;;;;0.57;0.57;;;9.50;94.80;;;;;;5106770;28;20260;-88
2021/05/23 06:42:50;;;;;;;0.65;0.60;;;9.60;94.20;;;;;;5110493;28;20239;-89
2021/05/23 06:45:22;;;;;;;0.70;0.57;;;9.60;94.80;;;;;;5115297;28;20229;-88
2021/05/23 06:47:52;;;;;;;0.40;0.40;;;9.70;93.40;;;;;;5123109;28;20307;-88
2021/05/23 06:50:23;;;;;;;0.52;0.52;;;9.70;94.30;;;;;;5106755;28;20208;-88
2021/05/23 06:53:00;;;;;;;0.90;0.70;;;9.80;94.50;;;;;;5108298;28;20272;-88
2021/05/23 06:55:27;;;;;;;0.68;0.68;;;9.70;94.40;;;;;;5118256;27;20190;-89
2021/05/23 06:57:56;;;;;;;0.60;0.60;;;9.70;94.30;;;;;;5130201;27;20226;-88
2021/05/23 07:00:23;;;;;;;0.88;0.57;;;9.80;93.80;;;;;;5123239;27;20232;-89
2021/05/23 07:02:50;;;;;;;0.70;0.70;;;9.80;93.90;;;;;;5120027;28;20269;-90
2021/05/23 07:05:19;;;;;;;1.15;0.82;;;9.80;94.30;;;;;;5121324;27;20210;-90
2021/05/23 07:07:47;;;;;;;0.55;0.40;;;10.00;93.60;;;;;;5126959;28;20226;-89
2021/05/23 07:10:15;;;;;;;0.50;0.50;;;9.80;93.30;;;;;;5101311;28;20264;-89
2021/05/23 07:12:41;;;;;;;0.50;0.50;;;9.80;94.20;;;;;;5109611;28;20216;-89
2021/05/23 07:15:54;;;;;;;0.98;0.50;;;9.60;94.70;;;;;;5115509;28;20218;-88
2021/05/23 07:18:23;;;;;;;0.70;0.60;;;9.60;94.60;;;;;;5102844;28;20228;-87
2021/05/23 07:20:49;;;;;;;1.25;0.57;;;9.60;94.60;;;;;;5125181;28;20329;-88
2021/05/23 07:23:32;;;;;;;0.50;0.50;;;9.60;94.90;;;;;;5120466;27;20244;-88
2021/05/23 07:25:58;;;;;;;0.93;0.85;;;9.50;94.60;;;;;;5123673;28;20252;-89
2021/05/23 07:28:25;;;;;;;0.63;0.63;;;9.50;94.60;;;;;;5126345;28;20221;-86
2021/05/23 07:30:52;;;;;;;0.75;0.60;;;9.20;95.30;;;;;;5096089;28;20199;-86
2021/05/23 07:33:18;;;;;;;1.45;0.50;;;9.20;95.90;;;;;;5113262;28;20250;-89
2021/05/23 07:35:46;;;;;;;0.75;0.75;;;9.20;96.00;;;;;;5113511;28;20212;-87
2021/05/23 07:38:13;;;;;;;2.17;0.80;;;9.30;96.60;;;;;;5111140;28;20674;-89
2021/05/23 07:40:40;;;;;;;2.38;0.90;;;9.50;96.80;;;;;;5108537;27;20221;-87
2021/05/23 07:43:06;;;;;;;0.63;0.63;;;9.70;95.20;;;;;;5118528;28;20273;-89
2021/05/23 07:45:33;;;;;;;0.70;0.70;;;9.60;94.60;;;;;;5119541;28;20283;-86
2021/05/23 07:48:01;;;;;;;0.50;0.50;;;9.60;94.30;;;;;;5120709;28;20283;-87
2021/05/23 07:50:38;;;;;;;0.47;0.47;;;9.60;95.50;;;;;;5087575;28;20196;-87
2021/05/23 07:53:06;;;;;;;1.13;0.70;;;9.70;94.70;;;;;;5099244;28;20216;-90
2021/05/23 07:55:33;;;;;;;0.60;0.60;;;9.70;95.10;;;;;;5088235;28;20248;-88
2021/05/23 07:58:12;;;;;;;0.40;0.40;;;9.70;94.70;;;;;;5114712;28;20229;-92
2021/05/23 08:00:44;;;;;;;0.60;0.60;;;9.80;94.80;;;;;;5111594;28;20184;-89
2021/05/23 08:03:10;;;;;;;0.50;0.50;;;9.80;95.10;;;;;;5095300;28;20224;-88
2021/05/23 08:05:37;;;;;;;1.02;0.60;;;10.10;94.60;;;;;;5110688;28;20716;-86
2021/05/23 08:08:07;;;;;;;0.60;0.60;;;10.30;93.50;;;;;;5114446;28;20220;-90
2021/05/23 08:10:38;;;;;;;0.65;0.57;;;10.40;93.60;;;;;;5117212;28;20211;-88
2021/05/23 08:13:13;;;;;;;0.65;0.60;;;10.60;93.20;;;;;;5114383;28;20265;-89
2021/05/23 08:16:01;;;;;;;0.70;0.70;;;11.00;92.40;;;;;;5109222;28;20207;-92
2021/05/23 08:18:32;;;;;;;1.23;0.70;;;11.10;91.40;;;;;;5117418;28;20224;-90
2021/05/23 08:21:00;;;;;;;0.77;0.77;;;11.30;90.60;;;;;;5122894;28;20227;-89
2021/05/23 08:23:30;;;;;;;0.70;0.70;;;11.60;90.20;;;;;;5090185;28;20667;-88
2021/05/23 08:25:59;;;;;;;0.63;0.63;;;11.70;88.00;;;;;;5113099;28;20244;-91
2021/05/23 08:28:31;;;;;;;1.15;0.80;;;11.70;88.50;;;;;;5119779;28;20238;-90
2021/05/23 08:30:58;;;;;;;0.60;0.60;;;11.60;89.30;;;;;;5107523;28;20615;-91
2021/05/23 08:33:24;;;;;;;0.50;0.50;;;11.60;90.10;;;;;;5118104;28;20569;-89
2021/05/23 08:35:51;;;;;;;1.13;1.00;;;11.60;88.70;;;;;;5099055;28;20206;-89
2021/05/23 08:48:13;;;;;;;0.60;0.57;;;11.10;90.50;;;;;;5039668;28;20257;-90
2021/05/23 08:50:39;;;;;;;0.82;0.80;;;11.30;90.20;;;;;;5085424;28;20235;-88
2021/05/23 08:58:28;;;;;;;0.77;0.75;;;11.60;89.30;;;;;;5043394;28;20213;-89
2021/05/23 09:01:31;;;;;;;2.30;0.93;;;11.70;88.70;;;;;;5037293;28;20196;-91
2021/05/23 09:04:21;;;;;;;2.25;0.60;;;11.70;89.30;;;;;;5038719;28;20210;-92
2021/05/23 09:06:48;;;;;;;1.65;0.80;;;11.90;88.00;;;;;;5062669;28;20263;-89
2021/05/23 09:09:17;;;;;;;0.68;0.68;;;12.10;88.30;;;;;;5076497;28;20292;-90
2021/05/23 09:11:52;;;;;;;1.48;0.90;;;12.30;86.60;;;;;;5061795;28;20232;-88
2021/05/23 09:23:22;;;;;;;1.67;0.57;;;12.70;82.50;;;;;;5051179;28;20238;-88
2021/05/23 09:25:51;;;;;;;1.45;0.77;;;12.00;75.10;;;;;;5066270;28;20201;-89
2021/05/23 09:31:46;;;;;;;2.13;1.20;;;10.70;78.30;;;;;;5087868;28;20224;-89
2021/05/23 09:34:21;;;;;;;3.22;1.27;;;10.10;82.40;;;;;;5084272;28;20607;-88
2021/05/23 09:36:49;;;;;;;2.60;0.80;;;9.90;86.80;;;;;;5068331;28;20229;-89
2021/05/23 09:39:20;;;;;;;1.80;0.90;;;10.10;90.00;;;;;;5072131;28;20284;-89
2021/05/23 09:45:11;;;;;;;1.30;0.90;;;11.50;83.00;;;;;;5092309;28;20184;-88
2021/05/23 09:47:40;;;;;;;1.85;0.68;;;12.40;78.90;;;;;;5090055;28;20613;-89
2021/05/23 10:16:50;;;;;;;1.30;1.15;;;12.50;81.80;;;;;;5578883;22;20238;-91
2021/05/23 10:19:18;;;;;;;0.80;0.80;;;13.80;83.60;;;;;;5103484;28;20200;-88
2021/05/23 10:21:46;;;;;;;8.13;6.68;;;15.40;71.20;;;;;;5104077;28;20208;-86
2021/05/23 10:24:16;;;;;;;1.15;0.90;;;16.60;58.30;;;;;;5099973;28;20197;-88
2021/05/23 10:26:44;;;;;;;3.53;2.90;;;17.40;52.60;;;;;;5096080;28;20224;-87
2021/05/23 10:29:11;;;;;;;7.10;5.80;;;17.70;49.00;;;;;;5080437;28;20279;-88
2021/05/23 10:31:37;;;;;;;1.58;1.35;;;17.40;48.40;;;;;;5087760;28;20251;-87
2021/05/23 10:34:05;;;;;;;3.38;1.60;;;17.10;48.40;;;;;;5105841;28;20204;-86
2021/05/23 10:36:33;;;;;;;1.45;1.00;;;16.50;49.30;;;;;;5105244;28;20232;-88
2021/05/23 10:39:03;;;;;;;5.25;3.88;;;15.80;53.20;;;;;;5107156;28;20197;-88
2021/05/23 10:41:29;;;;;;;1.52;1.00;;;15.40;57.60;;;;;;5104690;28;20246;-88
2021/05/23 10:44:00;;;;;;;2.63;1.40;;;15.20;56.10;;;;;;5110670;28;20268;-87
2021/05/23 10:46:26;;;;;;;1.98;1.10;;;15.60;58.30;;;;;;5091307;28;20315;-88
2021/05/23 10:49:08;;;;;;;2.10;1.65;;;16.00;57.30;;;;;;5101197;28;20255;-88
2021/05/23 10:51:34;;;;;;;1.77;1.13;;;15.80;58.30;;;;;;5104149;28;20227;-88
2021/05/23 10:54:00;;;;;;;1.88;1.45;;;16.40;57.80;;;;;;5112967;28;20207;-89
2021/05/23 10:56:29;;;;;;;1.65;1.10;;;17.20;57.70;;;;;;5102560;28;20227;-89
2021/05/23 10:58:59;;;;;;;1.35;1.25;;;17.10;51.20;;;;;;5114221;28;20580;-86
2021/05/23 11:01:40;;;;;;;1.55;1.20;;;16.50;52.70;;;;;;5123657;28;20231;-86
2021/05/23 11:04:13;;;;;;;2.17;0.93;;;16.40;52.60;;;;;;5110635;28;20259;-86
2021/05/23 11:06:40;;;;;;;2.55;1.10;;;16.90;59.10;;;;;;5119573;28;20220;-89
2021/05/23 11:09:37;;;;;;;3.20;1.40;;;17.20;53.30;;;;;;5118871;28;20212;-88
2021/05/23 11:12:07;;;;;;;1.70;1.00;;;17.30;51.60;;;;;;5129425;28;20228;-87
2021/05/23 11:14:33;;;;;;;0.95;0.70;;;17.40;50.70;;;;;;5115910;28;20204;-88
2021/05/23 11:17:00;;;;;;;1.25;1.08;;;17.00;48.90;;;;;;5118368;28;20201;-88
2021/05/23 11:19:31;;;;;;;1.58;0.80;;;16.60;51.50;;;;;;5126314;28;20203;-87
2021/05/23 11:21:59;;;;;;;1.15;1.05;;;15.90;52.20;;;;;;5128198;28;20228;-89
2021/05/23 11:24:29;;;;;;;2.03;1.13;;;14.90;58.40;;;;;;5113896;28;20658;-90
2021/05/23 11:27:20;;;;;;;4.30;2.85;;;14.60;65.70;;;;;;5108893;28;20235;-90
2021/05/23 11:29:46;;;;;;;12.80;9.40;;;14.90;68.00;;;;;;5108835;28;20212;-90
2021/05/23 11:32:14;;;;;;;3.03;1.30;;;15.20;71.60;;;;;;5112899;28;20224;-90
2021/05/23 11:34:41;;;;;;;8.38;4.50;;;15.30;70.00;;;;;;5106162;28;20265;-89
2021/05/23 11:37:08;;;;;;;1.73;1.00;;;15.50;66.60;;;;;;5114447;28;20237;-90
2021/05/23 11:39:34;;;;;;;5.55;2.40;;;15.50;64.50;;;;;;5102354;28;20231;-91
2021/05/23 11:42:05;;;;;;;3.97;2.72;;;15.50;62.70;;;;;;5107247;28;20764;-91
2021/05/23 11:44:35;;;;;;;1.15;0.88;;;15.70;65.60;;;;;;5111739;28;20532;-90
2021/05/23 11:47:02;;;;;;;1.92;1.30;;;15.50;63.30;;;;;;5110601;28;20220;-89
2021/05/23 11:49:30;;;;;;;1.88;1.10;;;15.40;60.60;;;;;;5107337;28;20244;-90
2021/05/23 11:52:02;;;;;;;1.85;1.00;;;15.50;70.70;;;;;;5107757;28;20248;-90
2021/05/23 11:54:28;;;;;;;1.52;1.17;;;15.70;68.30;;;;;;5104368;28;20690;-92
2021/05/23 11:56:54;;;;;;;2.40;1.10;;;16.00;68.00;;;;;;5100417;28;20322;-89
2021/05/23 11:59:21;;;;;;;3.13;1.00;;;16.20;66.80;;;;;;5116809;28;20227;-90
2021/05/23 12:01:48;;;;;;;1.08;0.98;;;15.30;56.60;;;;;;5114615;28;20298;-89
2021/05/23 12:04:17;;;;;;;2.72;1.30;;;15.40;60.40;;;;;;5107594;28;20292;-90
2021/05/23 12:06:46;;;;;;;1.17;0.85;;;15.90;59.80;;;;;;5102281;28;20682;-89
2021/05/23 12:09:14;;;;;;;1.52;1.10;;;15.90;52.20;;;;;;5098685;28;20224;-89
2021/05/23 12:11:45;;;;;;;1.25;0.90;;;16.10;52.30;;;;;;5111462;28;20216;-89
2021/05/23 12:14:25;;;;;;;1.25;0.90;;;16.20;53.60;;;;;;5106358;28;20196;-90
2021/05/23 12:17:01;;;;;;;1.83;1.25;;;16.60;52.80;;;;;;5101920;28;20232;-90
2021/05/23 12:19:45;;;;;;;1.65;1.10;;;16.50;54.10;;;;;;5112055;28;20195;-89
2021/05/23 12:22:12;;;;;;;0.95;0.82;;;16.90;53.10;;;;;;5118491;28;20224;-89
2021/05/23 12:24:42;;;;;;;1.05;0.90;;;17.30;49.20;;;;;;5105538;28;20220;-89
2021/05/23 12:27:13;;;;;;;1.20;1.10;;;17.20;53.30;;;;;;5103907;28;20310;-89
2021/05/23 12:29:40;;;;;;;0.73;0.73;;;17.30;55.30;;;;;;5122839;28;20215;-88
2021/05/23 12:32:07;;;;;;;2.85;1.00;;;17.20;44.70;;;;;;5122025;28;20227;-89
2021/05/23 12:34:33;;;;;;;1.15;0.82;;;16.80;45.90;;;;;;5123997;28;20204;-89
2021/05/23 12:37:00;;;;;;;5.22;0.90;;;16.60;46.20;;;;;;5122555;28;20276;-90
2021/05/23 12:39:27;;;;;;;1.50;1.10;;;16.50;46.50;;;;;;5113839;28;20211;-88
2021/05/23 12:41:54;;;;;;;1.25;1.15;;;16.50;45.20;;;;;;5128138;28;20226;-88
2021/05/23 12:44:23;;;;;;;1.98;1.35;;;16.20;45.70;;;;;;5121452;28;20199;-88
2021/05/23 12:46:50;;;;;;;1.52;0.90;;;16.00;47.50;;;;;;5114507;28;20588;-88
2021/05/23 12:49:18;;;;;;;1.88;1.23;;;16.40;47.10;;;;;;5124194;28;20318;-89
2021/05/23 12:51:45;;;;;;;0.98;0.88;;;16.60;46.50;;;;;;5115390;28;20223;-88
2021/05/23 12:54:22;;;;;;;1.17;1.00;;;16.30;46.70;;;;;;5111650;28;20280;-89
2021/05/23 12:56:49;;;;;;;1.30;1.20;;;16.50;43.90;;;;;;5125487;27;20227;-89
2021/05/23 12:59:19;;;;;;;2.72;1.17;;;16.70;45.30;;;;;;5109957;28;20200;-92
2021/05/23 13:01:46;;;;;;;3.03;1.13;;;16.40;44.60;;;;;;5115135;28;20826;-89
2021/05/23 13:04:15;;;;;;;2.65;2.20;;;16.30;46.50;;;;;;5115835;28;20275;-88
2021/05/23 13:06:47;;;;;;;4.25;2.85;;;16.10;49.20;;;;;;5102076;28;20312;-89
2021/05/23 13:09:14;;;;;;;2.45;1.60;;;16.20;49.80;;;;;;5109771;28;20705;-90
2021/05/23 13:11:49;;;;;;;1.23;1.00;;;16.10;49.50;;;;;;5114289;28;20273;-90
2021/05/23 13:14:16;;;;;;;3.75;1.35;;;16.00;48.70;;;;;;5111913;28;20203;-89
2021/05/23 13:16:50;;;;;;;2.15;1.92;;;16.00;47.40;;;;;;5104642;28;20221;-89
2021/05/23 13:19:17;;;;;;;4.25;1.08;;;15.90;46.30;;;;;;5102716;28;20213;-89
2021/05/23 13:21:49;;;;;;;1.95;1.20;;;16.00;47.50;;;;;;5093340;28;20234;-90
2021/05/23 13:24:16;;;;;;;2.35;0.90;;;15.90;49.90;;;;;;5102884;28;20211;-89
2021/05/23 13:26:47;;;;;;;1.42;0.90;;;16.00;49.10;;;;;;5108985;27;20223;-89
2021/05/23 13:29:13;;;;;;;2.05;1.02;;;16.10;46.30;;;;;;5108094;28;20705;-89
2021/05/23 13:31:41;;;;;;;14.00;11.20;;;16.10;47.70;;;;;;5109408;28;20223;-90
2021/05/23 13:34:08;;;;;;;2.97;1.10;;;16.10;48.00;;;;;;5112012;28;20204;-89
2021/05/23 13:36:35;;;;;;;2.15;1.60;;;16.10;44.60;;;;;;5098234;28;20248;-89
2021/05/23 13:39:01;;;;;;;3.20;2.22;;;16.20;48.30;;;;;;5111602;28;20589;-89
2021/05/23 13:41:28;;;;;;;3.92;1.60;;;16.30;47.20;;;;;;5108813;28;20303;-91
2021/05/23 13:43:54;;;;;;;1.88;1.00;;;16.50;47.20;;;;;;5097075;28;20588;-89
2021/05/23 13:46:21;;;;;;;8.02;5.93;;;16.60;44.60;;;;;;5102665;28;20279;-89
2021/05/23 13:48:48;;;;;;;1.10;1.00;;;16.60;43.20;;;;;;5109179;28;20293;-90
2021/05/23 13:51:15;;;;;;;8.20;7.28;;;16.20;43.30;;;;;;5109222;28;20207;-89
2021/05/23 13:53:41;;;;;;;2.33;1.30;;;16.00;44.00;;;;;;5111866;28;20215;-89
2021/05/23 13:56:14;;;;;;;1.55;1.20;;;15.70;41.80;;;;;;5109122;28;20196;-89
2021/05/23 13:58:40;;;;;;;8.18;3.97;;;15.50;43.80;;;;;;5114081;28;20209;-89
2021/05/23 14:01:10;;;;;;;1.90;1.45;;;15.40;44.50;;;;;;5111284;28;20217;-89
2021/05/23 14:03:36;;;;;;;3.78;2.58;;;15.40;44.40;;;;;;5117043;28;20556;-89
2021/05/23 14:06:04;;;;;;;1.70;0.85;;;15.60;44.40;;;;;;5113396;28;20197;-89
2021/05/23 14:08:32;;;;;;;3.45;2.55;;;15.70;39.60;;;;;;5109802;28;20192;-89
2021/05/23 14:10:59;;;;;;;1.83;1.40;;;15.80;42.80;;;;;;5102553;28;20535;-90
2021/05/23 14:13:28;;;;;;;1.83;1.05;;;16.10;43.00;;;;;;5099587;28;20230;-90
2021/05/23 14:15:54;;;;;;;2.28;1.08;;;16.20;41.30;;;;;;5107247;28;20204;-89
2021/05/23 14:18:21;;;;;;;1.95;1.15;;;16.40;40.40;;;;;;5096967;28;20226;-89
2021/05/23 14:20:48;;;;;;;2.45;1.60;;;16.30;41.00;;;;;;5103798;28;20207;-89
2021/05/23 14:23:15;;;;;;;0.95;0.80;;;16.40;41.70;;;;;;5115938;28;20224;-89
2021/05/23 14:25:41;;;;;;;1.30;1.00;;;16.30;39.30;;;;;;5115677;28;20195;-90
2021/05/23 14:28:08;;;;;;;1.25;1.08;;;16.10;41.30;;;;;;5114550;28;20289;-90
2021/05/23 14:30:35;;;;;;;2.05;1.08;;;16.00;43.00;;;;;;5097317;28;20228;-90
2021/05/23 14:33:02;;;;;;;2.30;0.80;;;16.10;42.30;;;;;;5106653;28;20224;-89
2021/05/23 14:35:29;;;;;;;1.75;0.90;;;16.50;38.90;;;;;;5110172;28;20204;-89
2021/05/23 14:37:55;;;;;;;3.00;0.95;;;16.60;36.30;;;;;;5106943;28;20310;-89
2021/05/23 14:40:24;;;;;;;1.13;1.02;;;16.70;36.40;;;;;;5116098;28;20324;-89
2021/05/23 14:42:51;;;;;;;1.23;1.02;;;16.80;36.40;;;;;;5116152;27;20228;-90
2021/05/23 14:45:18;;;;;;;1.45;0.65;;;17.00;37.70;;;;;;5118019;28;20211;-89
2021/05/23 14:47:44;;;;;;;1.40;0.90;;;17.20;38.70;;;;;;5119571;28;20284;-87
2021/05/23 14:50:11;;;;;;;1.13;0.93;;;17.30;39.00;;;;;;5125015;28;20243;-89
2021/05/23 14:52:39;;;;;;;1.88;1.00;;;17.20;38.30;;;;;;5115407;28;20675;-89
2021/05/23 14:55:28;;;;;;;1.75;0.80;;;17.10;39.30;;;;;;5103653;28;20220;-89
2021/05/23 14:57:54;;;;;;;1.50;1.17;;;17.00;38.70;;;;;;5108321;28;20258;-89
2021/05/23 15:00:22;;;;;;;1.25;0.95;;;16.80;40.70;;;;;;5095308;28;20188;-90
2021/05/23 15:02:50;;;;;;;2.97;1.08;;;16.60;39.00;;;;;;5109501;28;20250;-89
2021/05/23 15:05:17;;;;;;;2.67;1.27;;;16.50;39.80;;;;;;5115091;28;20222;-88
2021/05/23 15:07:43;;;;;;;1.77;1.17;;;16.50;38.10;;;;;;5107543;28;20232;-89
2021/05/23 15:10:14;;;;;;;1.20;1.10;;;16.40;37.20;;;;;;5105775;28;20581;-89
2021/05/23 15:12:42;;;;;;;3.22;1.05;;;16.30;37.40;;;;;;5100617;28;20224;-89
2021/05/23 15:15:09;;;;;;;1.27;1.17;;;16.20;36.40;;;;;;5098137;28;20231;-89
2021/05/23 15:17:36;;;;;;;1.05;0.88;;;16.20;35.80;;;;;;5103790;28;20250;-89
2021/05/23 15:20:04;;;;;;;1.08;0.90;;;16.40;35.90;;;;;;5099445;28;20713;-90
2021/05/23 15:22:30;;;;;;;1.20;1.08;;;16.40;34.90;;;;;;5099196;28;20301;-89
2021/05/23 15:24:57;;;;;;;1.10;0.90;;;16.40;36.70;;;;;;5116242;28;20653;-88
2021/05/23 15:30:11;;;;;;;1.23;1.13;;;16.20;36.30;;;;;;5097686;28;20215;-89
2021/05/23 15:32:38;;;;;;;1.38;1.00;;;16.40;37.10;;;;;;5112801;27;20223;-89
2021/05/23 15:35:05;;;;;;;1.50;1.10;;;16.40;33.80;;;;;;5102247;28;20282;-90
2021/05/23 15:37:31;;;;;;;0.90;0.90;;;16.40;36.10;;;;;;5096353;28;20216;-89
2021/05/23 15:39:58;;;;;;;1.88;0.98;;;16.40;35.70;;;;;;5097692;28;20188;-89
2021/05/23 15:42:24;;;;;;;1.10;0.80;;;16.40;34.30;;;;;;5109963;28;20227;-88
2021/05/23 15:44:51;;;;;;;1.05;0.95;;;16.20;33.90;;;;;;5098991;28;20617;-90